Omskiy-107 — UBWE3 — position and weather

sailwx.info

Track history (hours):
 
Tides and Currents Weather Stations Pressure Air Temp Water Temp Dewpoint Dewpoint Depression Visibility Wind Speed Wind Dir Waves Ship Positions

Omskiy-107

Last reported at 2016-Jul-26 21:10 UTC. Time now 2016-Jul-30 07:23 UTC.
Position N 46°59' E 038°27'.

Length 108 m; draft 2.5 m.

Type: Cargo ship. MMSI: 273343220.

Date/timePositionNaut miles runAvg speedWind from/ knotsBaromVisibWave heightAir tempDewpointWater temp
2016-Jul-26 21:10N 46°59' E 038°27'  
2016-Jul-24 08:30N 45°34' E 036°49'7 7.9
2016-Jul-24 07:33N 45°28' E 036°42'6 5.8
2016-Jul-24 06:33N 45°22' E 036°40'9 8.8
2016-Jul-24 05:33N 45°18' E 036°29'6 5.8
2016-Jul-24 04:33N 45°12' E 036°28'  
2016-Jul-21 00:09N 45°11' E 036°28'4 6.7
2016-Jul-20 23:33N 45°15' E 036°28'6 6.4
2016-Jul-20 22:34N 45°20' E 036°34'7 7.0
2016-Jul-20 21:33N 45°25' E 036°41'  
Track history (hours):
 
Tides and Currents Weather Stations Pressure Air Temp Water Temp Dewpoint Dewpoint Depression Visibility Wind Speed Wind Dir Waves Ship Positions

Omskiy-107

Last reported at 2016-Jul-26 21:10 UTC. Time now 2016-Jul-30 07:23 UTC.
Position N 46°59' E 038°27'.

Length 108 m; draft 2.5 m.

Type: Cargo ship. MMSI: 273343220.

Date/timePositionNaut miles runAvg speedWind from/ knotsBaromVisibWave heightAir tempDewpointWater temp
2016-Jul-26 21:10N 46°59' E 038°27'  
2016-Jul-24 08:30N 45°34' E 036°49'7 7.9
2016-Jul-24 07:33N 45°28' E 036°42'6 5.8
2016-Jul-24 06:33N 45°22' E 036°40'9 8.8
2016-Jul-24 05:33N 45°18' E 036°29'6 5.8
2016-Jul-24 04:33N 45°12' E 036°28'  
2016-Jul-21 00:09N 45°11' E 036°28'4 6.7
2016-Jul-20 23:33N 45°15' E 036°28'6 6.4
2016-Jul-20 22:34N 45°20' E 036°34'7 7.0
2016-Jul-20 21:33N 45°25' E 036°41'  

Dump ship's entire track history